sensor_id;sensor_type;location;lat;lon;timestamp;pressure;altitude;pressure_sealevel;temperature;humidity
34931;BME280;21134;49.646;8.560;2024-03-06T00:02:22;100540.19;;;5.37;100.00
34931;BME280;21134;49.646;8.560;2024-03-06T00:04:50;100544.34;;;5.33;100.00
34931;BME280;21134;49.646;8.560;2024-03-06T00:07:16;100543.44;;;5.30;100.00
34931;BME280;21134;49.646;8.560;2024-03-06T00:09:43;100547.59;;;5.28;100.00
34931;BME280;21134;49.646;8.560;2024-03-06T00:12:10;100550.06;;;5.25;100.00
34931;BME280;21134;49.646;8.560;2024-03-06T00:14:36;100548.31;;;5.21;100.00
34931;BME280;21134;49.646;8.560;2024-03-06T00:17:03;100553.31;;;5.18;100.00
34931;BME280;21134;49.646;8.560;2024-03-06T00:19:31;100558.31;;;5.15;100.00
34931;BME280;21134;49.646;8.560;2024-03-06T00:21:59;100570.03;;;5.09;100.00
34931;BME280;21134;49.646;8.560;2024-03-06T00:24:26;100569.16;;;5.07;100.00
34931;BME280;21134;49.646;8.560;2024-03-06T00:26:52;100564.03;;;5.06;100.00
34931;BME280;21134;49.646;8.560;2024-03-06T00:29:19;100564.09;;;5.07;100.00
34931;BME280;21134;49.646;8.560;2024-03-06T00:31:46;100573.41;;;5.08;100.00
34931;BME280;21134;49.646;8.560;2024-03-06T00:34:13;100575.94;;;5.10;100.00
34931;BME280;21134;49.646;8.560;2024-03-06T00:36:40;100573.47;;;5.11;100.00
34931;BME280;21134;49.646;8.560;2024-03-06T00:39:08;100581.16;;;5.16;100.00
34931;BME280;21134;49.646;8.560;2024-03-06T00:41:35;100576.06;;;5.15;100.00
34931;BME280;21134;49.646;8.560;2024-03-06T00:44:03;100580.25;;;5.12;100.00
34931;BME280;21134;49.646;8.560;2024-03-06T00:46:29;100576.00;;;5.11;100.00
34931;BME280;21134;49.646;8.560;2024-03-06T00:48:56;100585.31;;;5.12;100.00
34931;BME280;21134;49.646;8.560;2024-03-06T00:51:22;100584.47;;;5.12;100.00
34931;BME280;21134;49.646;8.560;2024-03-06T00:53:49;100591.22;;;5.11;100.00
34931;BME280;21134;49.646;8.560;2024-03-06T00:56:17;100588.63;;;5.10;100.00
34931;BME280;21134;49.646;8.560;2024-03-06T00:58:43;100593.69;;;5.10;100.00
34931;BME280;21134;49.646;8.560;2024-03-06T01:01:10;100595.38;;;5.08;100.00
34931;BME280;21134;49.646;8.560;2024-03-06T01:03:37;100600.38;;;5.06;100.00
34931;BME280;21134;49.646;8.560;2024-03-06T01:06:04;100597.84;;;5.06;100.00
34931;BME280;21134;49.646;8.560;2024-03-06T01:08:30;100602.91;;;5.06;100.00
34931;BME280;21134;49.646;8.560;2024-03-06T01:10:57;100602.97;;;5.08;100.00
34931;BME280;21134;49.646;8.560;2024-03-06T01:13:28;100596.22;;;5.08;100.00
34931;BME280;21134;49.646;8.560;2024-03-06T01:15:54;100591.16;;;5.08;100.00
34931;BME280;21134;49.646;8.560;2024-03-06T01:18:21;100599.69;;;5.12;100.00
34931;BME280;21134;49.646;8.560;2024-03-06T01:20:48;100600.50;;;5.11;100.00
34931;BME280;21134;49.646;8.560;2024-03-06T01:23:14;100598.84;;;5.13;100.00
34931;BME280;21134;49.646;8.560;2024-03-06T01:25:42;100598.06;;;5.16;100.00
34931;BME280;21134;49.646;8.560;2024-03-06T01:28:08;100599.69;;;5.13;100.00
34931;BME280;21134;49.646;8.560;2024-03-06T01:30:36;100596.34;;;5.15;100.00
34931;BME280;21134;49.646;8.560;2024-03-06T01:33:02;100594.66;;;5.15;100.00
34931;BME280;21134;49.646;8.560;2024-03-06T01:35:30;100593.75;;;5.11;100.00
34931;BME280;21134;49.646;8.560;2024-03-06T01:37:56;100592.13;;;5.15;100.00
34931;BME280;21134;49.646;8.560;2024-03-06T01:40:23;100593.78;;;5.13;100.00
34931;BME280;21134;49.646;8.560;2024-03-06T01:42:50;100588.69;;;5.11;100.00
34931;BME280;21134;49.646;8.560;2024-03-06T01:45:16;100587.75;;;5.08;100.00
34931;BME280;21134;49.646;8.560;2024-03-06T01:47:44;100595.38;;;5.08;100.00
34931;BME280;21134;49.646;8.560;2024-03-06T01:50:11;100602.13;;;5.07;100.00
34931;BME280;21134;49.646;8.560;2024-03-06T01:52:39;100607.91;;;5.03;100.00
34931;BME280;21134;49.646;8.560;2024-03-06T01:55:08;100604.47;;;5.00;100.00
34931;BME280;21134;49.646;8.560;2024-03-06T01:57:38;100596.84;;;4.98;100.00
34931;BME280;21134;49.646;8.560;2024-03-06T02:00:06;100600.16;;;4.97;100.00
34931;BME280;21134;49.646;8.560;2024-03-06T02:02:33;100603.50;;;4.95;100.00
34931;BME280;21134;49.646;8.560;2024-03-06T02:05:02;100600.00;;;4.89;100.00
34931;BME280;21134;49.646;8.560;2024-03-06T02:07:32;100598.28;;;4.88;100.00
34931;BME280;21134;49.646;8.560;2024-03-06T02:09:58;100594.78;;;4.83;100.00
34931;BME280;21134;49.646;8.560;2024-03-06T02:12:25;100587.97;;;4.81;100.00
34931;BME280;21134;49.646;8.560;2024-03-06T02:14:53;100582.88;;;4.81;100.00
34931;BME280;21134;49.646;8.560;2024-03-06T02:17:19;100581.94;;;4.76;100.00
34931;BME280;21134;49.646;8.560;2024-03-06T02:19:47;100591.03;;;4.68;100.00
34931;BME280;21134;49.646;8.560;2024-03-06T02:22:14;100587.41;;;4.58;100.00
34931;BME280;21134;49.646;8.560;2024-03-06T02:24:44;100599.97;;;4.53;100.00
34931;BME280;21134;49.646;8.560;2024-03-06T02:27:11;100599.00;;;4.50;100.00
34931;BME280;21134;49.646;8.560;2024-03-06T02:29:38;100593.09;;;4.49;100.00
34931;BME280;21134;49.646;8.560;2024-03-06T02:32:05;100597.34;;;4.50;100.00
34931;BME280;21134;49.646;8.560;2024-03-06T02:34:31;100590.53;;;4.48;100.00
34931;BME280;21134;49.646;8.560;2024-03-06T02:36:58;100598.06;;;4.45;100.00
34931;BME280;21134;49.646;8.560;2024-03-06T02:39:25;100602.13;;;4.39;100.00
34931;BME280;21134;49.646;8.560;2024-03-06T02:41:52;100601.19;;;4.36;100.00
34931;BME280;21134;49.646;8.560;2024-03-06T02:44:18;100608.78;;;4.34;100.00
34931;BME280;21134;49.646;8.560;2024-03-06T02:46:46;100592.66;;;4.32;100.00
34931;BME280;21134;49.646;8.560;2024-03-06T02:49:13;100599.41;;;4.32;100.00
34931;BME280;21134;49.646;8.560;2024-03-06T02:51:40;100605.31;;;4.31;100.00
34931;BME280;21134;49.646;8.560;2024-03-06T02:54:06;100609.47;;;4.29;100.00
34931;BME280;21134;49.646;8.560;2024-03-06T02:56:34;100611.94;;;4.27;100.00
34931;BME280;21134;49.646;8.560;2024-03-06T02:59:00;100611.84;;;4.24;100.00
34931;BME280;21134;49.646;8.560;2024-03-06T03:01:28;100609.41;;;4.27;100.00
34931;BME280;21134;49.646;8.560;2024-03-06T03:03:55;100611.91;;;4.26;100.00
34931;BME280;21134;49.646;8.560;2024-03-06T03:06:21;100606.88;;;4.27;100.00
34931;BME280;21134;49.646;8.560;2024-03-06T03:08:49;100597.56;;;4.26;100.00
34931;BME280;21134;49.646;8.560;2024-03-06T03:11:15;100605.25;;;4.29;100.00
34931;BME280;21134;49.646;8.560;2024-03-06T03:13:43;100604.25;;;4.24;100.00
34931;BME280;21134;49.646;8.560;2024-03-06T03:16:15;100599.09;;;4.21;100.00
34931;BME280;21134;49.646;8.560;2024-03-06T03:18:42;100601.63;;;4.19;100.00
34931;BME280;21134;49.646;8.560;2024-03-06T03:21:09;100601.59;;;4.18;100.00
34931;BME280;21134;49.646;8.560;2024-03-06T03:23:36;100599.06;;;4.18;100.00
34931;BME280;21134;49.646;8.560;2024-03-06T03:26:03;100597.22;;;4.12;100.00
34931;BME280;21134;49.646;8.560;2024-03-06T03:28:30;100598.81;;;4.09;100.00
34931;BME280;21134;49.646;8.560;2024-03-06T03:30:58;100602.94;;;4.05;100.00
34931;BME280;21134;49.646;8.560;2024-03-06T03:33:24;100606.25;;;4.03;100.00
34931;BME280;21134;49.646;8.560;2024-03-06T03:35:51;100600.41;;;4.05;100.00
34931;BME280;21134;49.646;8.560;2024-03-06T03:38:17;100604.50;;;4.02;100.00
34931;BME280;21134;49.646;8.560;2024-03-06T03:40:44;100602.72;;;3.97;100.00
34931;BME280;21134;49.646;8.560;2024-03-06T03:43:10;100606.06;;;3.96;100.00
34931;BME280;21134;49.646;8.560;2024-03-06T03:45:37;100605.16;;;3.94;100.00
34931;BME280;21134;49.646;8.560;2024-03-06T03:48:05;100606.00;;;3.95;100.00
34931;BME280;21134;49.646;8.560;2024-03-06T03:50:32;100606.81;;;3.92;100.00
34931;BME280;21134;49.646;8.560;2024-03-06T03:52:59;100612.63;;;3.90;100.00
34931;BME280;21134;49.646;8.560;2024-03-06T03:55:26;100617.63;;;3.88;100.00
34931;BME280;21134;49.646;8.560;2024-03-06T03:57:52;100618.47;;;3.87;100.00
34931;BME280;21134;49.646;8.560;2024-03-06T04:00:19;100609.03;;;3.82;100.00
34931;BME280;21134;49.646;8.560;2024-03-06T04:02:48;100621.56;;;3.77;100.00
34931;BME280;21134;49.646;8.560;2024-03-06T04:05:16;100620.53;;;3.70;100.00
34931;BME280;21134;49.646;8.560;2024-03-06T04:07:42;100617.75;;;3.63;100.00
34931;BME280;21134;49.646;8.560;2024-03-06T04:10:10;100620.25;;;3.61;100.00
34931;BME280;21134;49.646;8.560;2024-03-06T04:12:37;100628.53;;;3.57;100.00
34931;BME280;21134;49.646;8.560;2024-03-06T04:15:04;100629.34;;;3.55;100.00
34931;BME280;21134;49.646;8.560;2024-03-06T04:17:31;100629.28;;;3.53;100.00
34931;BME280;21134;49.646;8.560;2024-03-06T04:19:58;100629.25;;;3.52;100.00
34931;BME280;21134;49.646;8.560;2024-03-06T04:22:26;100630.84;;;3.48;100.00
34931;BME280;21134;49.646;8.560;2024-03-06T04:24:54;100630.75;;;3.45;100.00
34931;BME280;21134;49.646;8.560;2024-03-06T04:27:21;100634.06;;;3.44;100.00
34931;BME280;21134;49.646;8.560;2024-03-06T04:29:47;100637.34;;;3.41;100.00
34931;BME280;21134;49.646;8.560;2024-03-06T04:32:14;100636.38;;;3.36;100.00
34931;BME280;21134;49.646;8.560;2024-03-06T04:34:40;100639.56;;;3.31;100.00
34931;BME280;21134;49.646;8.560;2024-03-06T04:37:07;100650.50;;;3.30;100.00
34931;BME280;21134;49.646;8.560;2024-03-06T04:39:34;100656.22;;;3.24;100.00
34931;BME280;21134;49.646;8.560;2024-03-06T04:42:01;100653.59;;;3.21;100.00
34931;BME280;21134;49.646;8.560;2024-03-06T04:44:27;100656.88;;;3.18;100.00
34931;BME280;21134;49.646;8.560;2024-03-06T04:46:54;100666.03;;;3.15;100.00
34931;BME280;21134;49.646;8.560;2024-03-06T04:49:21;100666.84;;;3.14;100.00
34931;BME280;21134;49.646;8.560;2024-03-06T04:51:48;100670.34;;;3.17;100.00
34931;BME280;21134;49.646;8.560;2024-03-06T04:54:14;100676.31;;;3.19;100.00
34931;BME280;21134;49.646;8.560;2024-03-06T04:56:42;100674.63;;;3.20;100.00
34931;BME280;21134;49.646;8.560;2024-03-06T04:59:08;100675.72;;;3.28;100.00
34931;BME280;21134;49.646;8.560;2024-03-06T05:01:35;100674.72;;;3.23;100.00
34931;BME280;21134;49.646;8.560;2024-03-06T05:04:01;100675.44;;;3.19;100.00
34931;BME280;21134;49.646;8.560;2024-03-06T05:06:29;100682.16;;;3.18;100.00
34931;BME280;21134;49.646;8.560;2024-03-06T05:08:55;100683.91;;;3.19;100.00
34931;BME280;21134;49.646;8.560;2024-03-06T05:11:22;100686.63;;;3.25;100.00
34931;BME280;21134;49.646;8.560;2024-03-06T05:13:49;100697.63;;;3.28;100.00
34931;BME280;21134;49.646;8.560;2024-03-06T05:16:16;100702.69;;;3.28;100.00
34931;BME280;21134;49.646;8.560;2024-03-06T05:18:43;100712.84;;;3.29;100.00
34931;BME280;21134;49.646;8.560;2024-03-06T05:21:09;100709.41;;;3.27;100.00
34931;BME280;21134;49.646;8.560;2024-03-06T05:23:37;100708.59;;;3.28;100.00
34931;BME280;21134;49.646;8.560;2024-03-06T05:26:03;100706.97;;;3.30;100.00
34931;BME280;21134;49.646;8.560;2024-03-06T05:28:30;100705.31;;;3.31;100.00
34931;BME280;21134;49.646;8.560;2024-03-06T05:30:58;100698.44;;;3.26;100.00
34931;BME280;21134;49.646;8.560;2024-03-06T05:33:26;100708.56;;;3.26;100.00
34931;BME280;21134;49.646;8.560;2024-03-06T05:35:53;100716.25;;;3.30;100.00
34931;BME280;21134;49.646;8.560;2024-03-06T05:38:20;100706.06;;;3.28;100.00
34931;BME280;21134;49.646;8.560;2024-03-06T05:40:47;100713.00;;;3.34;100.00
34931;BME280;21134;49.646;8.560;2024-03-06T05:43:13;100712.22;;;3.36;100.00
34931;BME280;21134;49.646;8.560;2024-03-06T05:45:40;100715.59;;;3.35;100.00
34931;BME280;21134;49.646;8.560;2024-03-06T05:48:08;100713.16;;;3.38;100.00
34931;BME280;21134;49.646;8.560;2024-03-06T05:50:34;100719.16;;;3.42;100.00
34931;BME280;21134;49.646;8.560;2024-03-06T05:53:01;100724.31;;;3.45;100.00
34931;BME280;21134;49.646;8.560;2024-03-06T05:55:28;100731.22;;;3.50;100.00
34931;BME280;21134;49.646;8.560;2024-03-06T05:57:54;100733.81;;;3.52;100.00
34931;BME280;21134;49.646;8.560;2024-03-06T06:00:21;100741.50;;;3.55;100.00
34931;BME280;21134;49.646;8.560;2024-03-06T06:02:48;100747.50;;;3.59;100.00
34931;BME280;21134;49.646;8.560;2024-03-06T06:05:16;100747.72;;;3.65;100.00
34931;BME280;21134;49.646;8.560;2024-03-06T06:07:45;100761.31;;;3.68;100.00
34931;BME280;21134;49.646;8.560;2024-03-06T06:10:12;100759.69;;;3.70;100.00
34931;BME280;21134;49.646;8.560;2024-03-06T06:12:38;100771.47;;;3.70;100.00
34931;BME280;21134;49.646;8.560;2024-03-06T06:15:05;100771.47;;;3.70;100.00
34931;BME280;21134;49.646;8.560;2024-03-06T06:17:32;100773.13;;;3.69;100.00
34931;BME280;21134;49.646;8.560;2024-03-06T06:20:02;100772.25;;;3.67;100.00
34931;BME280;21134;49.646;8.560;2024-03-06T06:22:30;100784.06;;;3.68;100.00
34931;BME280;21134;49.646;8.560;2024-03-06T06:24:56;100785.03;;;3.72;100.00
34931;BME280;21134;49.646;8.560;2024-03-06T06:27:23;100789.38;;;3.76;100.00
34931;BME280;21134;49.646;8.560;2024-03-06T06:29:50;100794.50;;;3.78;100.00
34931;BME280;21134;49.646;8.560;2024-03-06T06:32:18;100794.59;;;3.81;100.00
34931;BME280;21134;49.646;8.560;2024-03-06T06:34:45;100796.38;;;3.83;100.00
34931;BME280;21134;49.646;8.560;2024-03-06T06:37:12;100788.78;;;3.83;100.00
34931;BME280;21134;49.646;8.560;2024-03-06T06:39:41;100802.47;;;3.90;100.00
34931;BME280;21134;49.646;8.560;2024-03-06T06:42:08;100798.38;;;3.95;100.00
34931;BME280;21134;49.646;8.560;2024-03-06T06:44:37;100806.16;;;4.00;100.00
34931;BME280;21134;49.646;8.560;2024-03-06T06:47:03;100806.38;;;4.07;100.00
34931;BME280;21134;49.646;8.560;2024-03-06T06:49:30;100808.41;;;4.19;100.00
34931;BME280;21134;49.646;8.560;2024-03-06T06:51:56;100805.31;;;4.28;100.00
34931;BME280;21134;49.646;8.560;2024-03-06T06:54:23;100813.13;;;4.35;100.00
34931;BME280;21134;49.646;8.560;2024-03-06T06:56:51;100801.41;;;4.39;100.00
34931;BME280;21134;49.646;8.560;2024-03-06T06:59:17;100809.16;;;4.43;100.00
34931;BME280;21134;49.646;8.560;2024-03-06T07:01:45;100810.13;;;4.49;100.00
34931;BME280;21134;49.646;8.560;2024-03-06T07:04:12;100816.97;;;4.51;100.00
34931;BME280;21134;49.646;8.560;2024-03-06T07:06:41;100817.16;;;4.59;100.00
34931;BME280;21134;49.646;8.560;2024-03-06T07:09:08;100821.56;;;4.64;100.00
34931;BME280;21134;49.646;8.560;2024-03-06T07:11:34;100822.66;;;4.73;100.00
34931;BME280;21134;49.646;8.560;2024-03-06T07:14:02;100826.28;;;4.82;100.00
34931;BME280;21134;49.646;8.560;2024-03-06T07:16:29;100826.66;;;4.96;100.00
34931;BME280;21134;49.646;8.560;2024-03-06T07:18:55;100828.63;;;5.06;100.00
34931;BME280;21134;49.646;8.560;2024-03-06T07:21:22;100830.56;;;5.15;100.00
34931;BME280;21134;49.646;8.560;2024-03-06T07:23:49;100837.63;;;5.27;100.00
34931;BME280;21134;49.646;8.560;2024-03-06T07:26:15;100828.50;;;5.33;100.00
34931;BME280;21134;49.646;8.560;2024-03-06T07:28:41;100832.06;;;5.42;100.00
34931;BME280;21134;49.646;8.560;2024-03-06T07:31:09;100839.91;;;5.51;100.00
34931;BME280;21134;49.646;8.560;2024-03-06T07:33:36;100843.53;;;5.60;100.00
34931;BME280;21134;49.646;8.560;2024-03-06T07:36:03;100841.28;;;5.71;100.00
34931;BME280;21134;49.646;8.560;2024-03-06T07:38:30;100843.16;;;5.80;100.00
34931;BME280;21134;49.646;8.560;2024-03-06T07:40:56;100855.31;;;5.92;100.00
34931;BME280;21134;49.646;8.560;2024-03-06T07:43:23;100855.44;;;5.96;100.00
34931;BME280;21134;49.646;8.560;2024-03-06T07:45:49;100858.94;;;6.00;100.00
34931;BME280;21134;49.646;8.560;2024-03-06T07:48:18;100859.94;;;6.08;100.00
34931;BME280;21134;49.646;8.560;2024-03-06T07:50:45;100862.66;;;6.16;100.00
34931;BME280;21134;49.646;8.560;2024-03-06T07:53:11;100863.88;;;6.32;100.00
34931;BME280;21134;49.646;8.560;2024-03-06T07:55:38;100865.81;;;6.43;100.00
34931;BME280;21134;49.646;8.560;2024-03-06T07:58:05;100870.34;;;6.57;100.00
34931;BME280;21134;49.646;8.560;2024-03-06T08:00:33;100871.41;;;6.66;100.00
34931;BME280;21134;49.646;8.560;2024-03-06T08:02:59;100876.09;;;6.87;100.00
34931;BME280;21134;49.646;8.560;2024-03-06T08:05:28;100871.06;;;6.92;100.00
34931;BME280;21134;49.646;8.560;2024-03-06T08:07:55;100881.44;;;7.01;100.00
34931;BME280;21134;49.646;8.560;2024-03-06T08:10:21;100877.44;;;7.12;98.08
34931;BME280;21134;49.646;8.560;2024-03-06T08:12:48;100885.94;;;7.14;95.84
34931;BME280;21134;49.646;8.560;2024-03-06T08:15:14;100883.25;;;7.07;95.94
34931;BME280;21134;49.646;8.560;2024-03-06T08:17:42;100878.16;;;7.05;94.74
34931;BME280;21134;49.646;8.560;2024-03-06T08:20:10;100888.16;;;6.97;94.55
34931;BME280;21134;49.646;8.560;2024-03-06T08:22:39;100888.47;;;7.14;94.09
34931;BME280;21134;49.646;8.560;2024-03-06T08:25:06;100887.56;;;7.11;94.18
34931;BME280;21134;49.646;8.560;2024-03-06T08:27:34;100889.44;;;7.21;94.82
34931;BME280;21134;49.646;8.560;2024-03-06T08:30:01;100889.34;;;7.15;94.70
34931;BME280;21134;49.646;8.560;2024-03-06T08:32:29;100902.22;;;7.24;94.45
34931;BME280;21134;49.646;8.560;2024-03-06T08:34:56;100904.09;;;7.31;95.11
34931;BME280;21134;49.646;8.560;2024-03-06T08:37:23;100905.06;;;7.39;93.96
34931;BME280;21134;49.646;8.560;2024-03-06T08:39:51;100902.69;;;7.47;92.35
34931;BME280;21134;49.646;8.560;2024-03-06T08:42:17;100898.34;;;7.41;92.24
34931;BME280;21134;49.646;8.560;2024-03-06T08:44:44;100894.88;;;7.38;93.07
34931;BME280;21134;49.646;8.560;2024-03-06T08:47:11;100895.56;;;7.29;92.65
34931;BME280;21134;49.646;8.560;2024-03-06T08:49:38;100898.13;;;7.31;93.53
34931;BME280;21134;49.646;8.560;2024-03-06T08:52:05;100905.91;;;7.38;92.42
34931;BME280;21134;49.646;8.560;2024-03-06T08:54:31;100903.16;;;7.28;94.14
34931;BME280;21134;49.646;8.560;2024-03-06T08:56:58;100898.09;;;7.28;94.58
34931;BME280;21134;49.646;8.560;2024-03-06T08:59:25;100907.56;;;7.36;92.93
34931;BME280;21134;49.646;8.560;2024-03-06T09:01:53;100905.25;;;7.49;92.49
34931;BME280;21134;49.646;8.560;2024-03-06T09:04:20;100908.81;;;7.57;92.82
34931;BME280;21134;49.646;8.560;2024-03-06T09:06:47;100908.41;;;7.82;92.43
34931;BME280;21134;49.646;8.560;2024-03-06T09:09:14;100901.78;;;7.93;90.69
34931;BME280;21134;49.646;8.560;2024-03-06T09:11:40;100899.47;;;8.07;90.71
34931;BME280;21134;49.646;8.560;2024-03-06T09:14:08;100905.53;;;8.15;91.06
34931;BME280;21134;49.646;8.560;2024-03-06T09:16:35;100902.97;;;8.15;90.12
34931;BME280;21134;49.646;8.560;2024-03-06T09:19:02;100909.88;;;8.21;91.47
34931;BME280;21134;49.646;8.560;2024-03-06T09:21:28;100909.91;;;8.24;89.97
34931;BME280;21134;49.646;8.560;2024-03-06T09:23:55;100911.53;;;8.19;90.82
34931;BME280;21134;49.646;8.560;2024-03-06T09:26:21;100907.50;;;8.35;91.01
34931;BME280;21134;49.646;8.560;2024-03-06T09:28:48;100911.75;;;8.34;90.14
34931;BME280;21134;49.646;8.560;2024-03-06T09:31:16;100907.75;;;8.49;90.50
34931;BME280;21134;49.646;8.560;2024-03-06T09:33:42;100909.72;;;8.68;89.57
34931;BME280;21134;49.646;8.560;2024-03-06T09:36:11;100911.81;;;8.97;88.25
34931;BME280;21134;49.646;8.560;2024-03-06T09:38:39;100903.28;;;8.98;87.33
34931;BME280;21134;49.646;8.560;2024-03-06T09:41:06;100916.13;;;9.04;87.25
34931;BME280;21134;49.646;8.560;2024-03-06T09:43:33;100907.69;;;9.11;87.17
34931;BME280;21134;49.646;8.560;2024-03-06T09:46:00;100910.22;;;9.08;86.36
34931;BME280;21134;49.646;8.560;2024-03-06T09:48:29;100905.25;;;9.22;86.56
34931;BME280;21134;49.646;8.560;2024-03-06T09:51:00;100902.78;;;9.26;86.55
34931;BME280;21134;49.646;8.560;2024-03-06T09:53:27;100906.22;;;9.31;86.03
34931;BME280;21134;49.646;8.560;2024-03-06T09:55:55;100911.31;;;9.28;87.14
34931;BME280;21134;49.646;8.560;2024-03-06T09:58:22;100913.03;;;9.29;86.19
34931;BME280;21134;49.646;8.560;2024-03-06T10:00:49;100911.31;;;9.30;85.79
34931;BME280;21134;49.646;8.560;2024-03-06T10:03:16;100920.59;;;9.22;86.33
34931;BME280;21134;49.646;8.560;2024-03-06T10:05:44;100918.97;;;9.31;86.92
34931;BME280;21134;49.646;8.560;2024-03-06T10:08:11;100915.72;;;9.43;85.69
34931;BME280;21134;49.646;8.560;2024-03-06T10:10:41;100917.66;;;9.64;83.77
34931;BME280;21134;49.646;8.560;2024-03-06T10:13:08;100911.56;;;9.53;84.72
34931;BME280;21134;49.646;8.560;2024-03-06T10:15:34;100922.72;;;9.63;84.90
34931;BME280;21134;49.646;8.560;2024-03-06T10:18:15;100923.63;;;9.69;82.41
34931;BME280;21134;49.646;8.560;2024-03-06T10:20:44;100924.63;;;9.85;81.81
34931;BME280;21134;49.646;8.560;2024-03-06T10:23:11;100929.97;;;10.10;81.13
34931;BME280;21134;49.646;8.560;2024-03-06T10:25:38;100929.19;;;10.18;79.59
34931;BME280;21134;49.646;8.560;2024-03-06T10:28:06;100937.66;;;10.14;79.67
34931;BME280;21134;49.646;8.560;2024-03-06T10:30:33;100932.50;;;10.07;79.51
34931;BME280;21134;49.646;8.560;2024-03-06T10:33:01;100935.06;;;10.08;80.02
34931;BME280;21134;49.646;8.560;2024-03-06T10:35:28;100936.66;;;9.92;81.10
34931;BME280;21134;49.646;8.560;2024-03-06T10:37:56;100926.53;;;10.06;81.14
34931;BME280;21134;49.646;8.560;2024-03-06T10:40:24;100931.59;;;10.00;80.67
34931;BME280;21134;49.646;8.560;2024-03-06T10:42:51;100934.22;;;10.11;80.85
34931;BME280;21134;49.646;8.560;2024-03-06T10:45:22;100930.88;;;10.19;80.23
34931;BME280;21134;49.646;8.560;2024-03-06T10:47:51;100933.47;;;10.22;80.47
34931;BME280;21134;49.646;8.560;2024-03-06T10:50:18;100925.78;;;10.21;79.52
34931;BME280;21134;49.646;8.560;2024-03-06T10:52:47;100937.72;;;10.20;80.20
34931;BME280;21134;49.646;8.560;2024-03-06T10:55:17;100937.00;;;10.37;78.99
34931;BME280;21134;49.646;8.560;2024-03-06T10:57:44;100935.34;;;10.42;77.31
34931;BME280;21134;49.646;8.560;2024-03-06T11:00:14;100928.59;;;10.52;76.99
34931;BME280;21134;49.646;8.560;2024-03-06T11:02:46;100934.63;;;10.60;78.07
34931;BME280;21134;49.646;8.560;2024-03-06T11:05:15;100934.66;;;10.70;76.38
34931;BME280;21134;49.646;8.560;2024-03-06T11:07:42;100935.59;;;10.86;75.34
34931;BME280;21134;49.646;8.560;2024-03-06T11:10:09;100941.66;;;11.07;76.83
34931;BME280;21134;49.646;8.560;2024-03-06T11:12:43;100940.00;;;11.07;74.98
34931;BME280;21134;49.646;8.560;2024-03-06T11:15:13;100943.44;;;11.18;74.82
34931;BME280;21134;49.646;8.560;2024-03-06T11:17:40;100933.22;;;11.32;74.98
34931;BME280;21134;49.646;8.560;2024-03-06T11:20:17;100941.78;;;11.45;73.90
34931;BME280;21134;49.646;8.560;2024-03-06T11:23:09;100939.25;;;11.51;74.16
34931;BME280;21134;49.646;8.560;2024-03-06T11:26:00;100945.25;;;11.56;72.27
34931;BME280;21134;49.646;8.560;2024-03-06T11:28:30;100933.28;;;11.49;72.99
34931;BME280;21134;49.646;8.560;2024-03-06T11:30:57;100935.81;;;11.48;72.52
34931;BME280;21134;49.646;8.560;2024-03-06T11:33:28;100933.31;;;11.63;72.65
34931;BME280;21134;49.646;8.560;2024-03-06T11:36:19;100940.16;;;11.79;73.02
34931;BME280;21134;49.646;8.560;2024-03-06T11:38:55;100929.91;;;11.62;72.89
34931;BME280;21134;49.646;8.560;2024-03-06T11:41:25;100929.88;;;11.70;72.73
34931;BME280;21134;49.646;8.560;2024-03-06T11:43:53;100931.63;;;11.79;72.29
34931;BME280;21134;49.646;8.560;2024-03-06T11:46:21;100929.91;;;11.75;72.24
34931;BME280;21134;49.646;8.560;2024-03-06T11:48:54;100926.50;;;11.76;73.02
34931;BME280;21134;49.646;8.560;2024-03-06T11:51:21;100923.91;;;11.70;73.20
34931;BME280;21134;49.646;8.560;2024-03-06T11:53:51;100927.34;;;11.78;72.45
34931;BME280;21134;49.646;8.560;2024-03-06T11:56:19;100924.78;;;11.78;72.70
34931;BME280;21134;49.646;8.560;2024-03-06T11:58:45;100917.13;;;11.95;70.93
34931;BME280;21134;49.646;8.560;2024-03-06T12:01:14;100918.84;;;11.94;71.35
34931;BME280;21134;49.646;8.560;2024-03-06T12:03:41;100920.56;;;11.88;71.77
34931;BME280;21134;49.646;8.560;2024-03-06T12:06:08;100920.53;;;11.86;71.28
34931;BME280;21134;49.646;8.560;2024-03-06T12:08:35;100918.84;;;11.96;71.72
34931;BME280;21134;49.646;8.560;2024-03-06T12:11:02;100918.84;;;11.94;71.08
34931;BME280;21134;49.646;8.560;2024-03-06T12:13:29;100920.56;;;12.03;70.12
34931;BME280;21134;49.646;8.560;2024-03-06T12:15:56;100915.41;;;12.20;68.86
34931;BME280;21134;49.646;8.560;2024-03-06T12:18:24;100921.41;;;12.26;69.17
34931;BME280;21134;49.646;8.560;2024-03-06T12:20:51;100925.66;;;12.43;67.82
34931;BME280;21134;49.646;8.560;2024-03-06T12:23:21;100925.66;;;12.38;68.72
34931;BME280;21134;49.646;8.560;2024-03-06T12:25:48;100925.69;;;12.35;67.55
34931;BME280;21134;49.646;8.560;2024-03-06T12:28:15;100927.38;;;12.18;68.09
34931;BME280;21134;49.646;8.560;2024-03-06T12:30:43;100928.25;;;12.01;68.60
34931;BME280;21134;49.646;8.560;2024-03-06T12:33:10;100929.94;;;11.85;68.99
34931;BME280;21134;49.646;8.560;2024-03-06T12:35:41;100937.63;;;11.78;70.25
34931;BME280;21134;49.646;8.560;2024-03-06T12:38:14;100932.47;;;11.78;70.48
34931;BME280;21134;49.646;8.560;2024-03-06T12:40:41;100938.44;;;11.74;69.70
34931;BME280;21134;49.646;8.560;2024-03-06T12:43:09;100938.50;;;11.92;68.86
34931;BME280;21134;49.646;8.560;2024-03-06T12:45:36;100924.81;;;11.92;69.43
34931;BME280;21134;49.646;8.560;2024-03-06T12:48:03;100929.97;;;12.04;70.11
34931;BME280;21134;49.646;8.560;2024-03-06T12:50:30;100928.25;;;12.23;67.99
34931;BME280;21134;49.646;8.560;2024-03-06T12:52:57;100927.38;;;12.08;68.46
34931;BME280;21134;49.646;8.560;2024-03-06T12:55:24;100934.19;;;11.82;68.97